sensor_id;sensor_type;location;lat;lon;timestamp;temperature;humidity
48988;DHT22;34799;51.440;-2.534;2023-03-31T00:00:45;10.90;99.90
48988;DHT22;34799;51.440;-2.534;2023-03-31T00:03:15;10.80;99.90
48988;DHT22;34799;51.440;-2.534;2023-03-31T00:05:47;10.80;99.90
48988;DHT22;34799;51.440;-2.534;2023-03-31T00:08:14;10.80;99.90
48988;DHT22;34799;51.440;-2.534;2023-03-31T00:10:46;10.80;99.90
48988;DHT22;34799;51.440;-2.534;2023-03-31T00:13:15;10.80;99.90
48988;DHT22;34799;51.440;-2.534;2023-03-31T00:15:42;10.80;99.90
48988;DHT22;34799;51.440;-2.534;2023-03-31T00:18:09;10.80;99.90
48988;DHT22;34799;51.440;-2.534;2023-03-31T00:20:38;10.80;99.90
48988;DHT22;34799;51.440;-2.534;2023-03-31T00:23:08;10.80;99.90
48988;DHT22;34799;51.440;-2.534;2023-03-31T00:25:39;10.70;99.90
48988;DHT22;34799;51.440;-2.534;2023-03-31T00:28:07;10.80;99.90
48988;DHT22;34799;51.440;-2.534;2023-03-31T00:30:34;10.80;99.90
48988;DHT22;34799;51.440;-2.534;2023-03-31T00:33:01;10.90;99.90
48988;DHT22;34799;51.440;-2.534;2023-03-31T00:35:29;10.90;99.90
48988;DHT22;34799;51.440;-2.534;2023-03-31T00:37:56;10.90;99.90
48988;DHT22;34799;51.440;-2.534;2023-03-31T00:40:24;11.00;99.90
48988;DHT22;34799;51.440;-2.534;2023-03-31T00:42:51;10.90;99.90
48988;DHT22;34799;51.440;-2.534;2023-03-31T00:45:25;10.90;99.90
48988;DHT22;34799;51.440;-2.534;2023-03-31T00:48:06;10.90;99.90
48988;DHT22;34799;51.440;-2.534;2023-03-31T00:51:03;10.90;99.90
48988;DHT22;34799;51.440;-2.534;2023-03-31T00:53:32;11.10;99.90
48988;DHT22;34799;51.440;-2.534;2023-03-31T00:56:06;10.90;99.90
48988;DHT22;34799;51.440;-2.534;2023-03-31T00:58:34;10.90;99.90
48988;DHT22;34799;51.440;-2.534;2023-03-31T01:01:14;10.90;99.90
48988;DHT22;34799;51.440;-2.534;2023-03-31T01:03:43;11.00;99.90
48988;DHT22;34799;51.440;-2.534;2023-03-31T01:06:13;10.90;99.90
48988;DHT22;34799;51.440;-2.534;2023-03-31T01:08:44;11.10;99.90
48988;DHT22;34799;51.440;-2.534;2023-03-31T01:11:18;10.90;99.90
48988;DHT22;34799;51.440;-2.534;2023-03-31T01:13:47;10.90;99.90
48988;DHT22;34799;51.440;-2.534;2023-03-31T01:16:18;10.80;99.90
48988;DHT22;34799;51.440;-2.534;2023-03-31T01:18:45;10.90;99.90
48988;DHT22;34799;51.440;-2.534;2023-03-31T01:35:39;10.90;99.90
48988;DHT22;34799;51.440;-2.534;2023-03-31T01:52:30;11.10;99.90
48988;DHT22;34799;51.440;-2.534;2023-03-31T01:55:08;11.00;99.90
48988;DHT22;34799;51.440;-2.534;2023-03-31T01:57:44;10.80;99.90
48988;DHT22;34799;51.440;-2.534;2023-03-31T02:00:18;10.80;99.90
48988;DHT22;34799;51.440;-2.534;2023-03-31T02:03:04;10.80;99.90
48988;DHT22;34799;51.440;-2.534;2023-03-31T02:05:49;10.80;99.90
48988;DHT22;34799;51.440;-2.534;2023-03-31T02:08:45;10.70;99.90
48988;DHT22;34799;51.440;-2.534;2023-03-31T02:11:14;10.80;99.90
48988;DHT22;34799;51.440;-2.534;2023-03-31T02:13:44;10.80;99.90
48988;DHT22;34799;51.440;-2.534;2023-03-31T02:16:17;10.90;99.90
48988;DHT22;34799;51.440;-2.534;2023-03-31T02:18:51;10.80;99.90
48988;DHT22;34799;51.440;-2.534;2023-03-31T02:21:21;10.70;99.90
48988;DHT22;34799;51.440;-2.534;2023-03-31T02:23:50;10.90;99.90
48988;DHT22;34799;51.440;-2.534;2023-03-31T02:26:24;10.70;99.90
48988;DHT22;34799;51.440;-2.534;2023-03-31T02:28:56;10.70;99.90
48988;DHT22;34799;51.440;-2.534;2023-03-31T02:31:41;10.70;99.90
48988;DHT22;34799;51.440;-2.534;2023-03-31T02:34:12;10.70;99.90
48988;DHT22;34799;51.440;-2.534;2023-03-31T02:36:41;10.70;99.90
48988;DHT22;34799;51.440;-2.534;2023-03-31T02:39:20;10.80;99.90
48988;DHT22;34799;51.440;-2.534;2023-03-31T02:41:51;10.80;99.90
48988;DHT22;34799;51.440;-2.534;2023-03-31T02:44:20;10.70;99.90
48988;DHT22;34799;51.440;-2.534;2023-03-31T02:46:48;10.70;99.90
48988;DHT22;34799;51.440;-2.534;2023-03-31T02:49:17;10.70;99.90
48988;DHT22;34799;51.440;-2.534;2023-03-31T02:55:28;8.60;99.90
48988;DHT22;34799;51.440;-2.534;2023-03-31T03:00:36;10.70;99.90
48988;DHT22;34799;51.440;-2.534;2023-03-31T03:11:07;10.60;99.90
48988;DHT22;34799;51.440;-2.534;2023-03-31T03:13:50;10.60;99.90
48988;DHT22;34799;51.440;-2.534;2023-03-31T03:16:25;10.60;99.90
48988;DHT22;34799;51.440;-2.534;2023-03-31T03:18:57;10.60;99.90
48988;DHT22;34799;51.440;-2.534;2023-03-31T03:21:25;10.60;99.90
48988;DHT22;34799;51.440;-2.534;2023-03-31T03:23:52;10.60;99.90
48988;DHT22;34799;51.440;-2.534;2023-03-31T03:26:22;10.60;99.90
48988;DHT22;34799;51.440;-2.534;2023-03-31T03:28:55;10.60;99.90
48988;DHT22;34799;51.440;-2.534;2023-03-31T03:31:23;10.60;99.90
48988;DHT22;34799;51.440;-2.534;2023-03-31T03:33:52;10.60;99.90
48988;DHT22;34799;51.440;-2.534;2023-03-31T03:36:19;10.60;99.90
48988;DHT22;34799;51.440;-2.534;2023-03-31T03:38:47;10.60;99.90
48988;DHT22;34799;51.440;-2.534;2023-03-31T03:41:15;10.60;99.90
48988;DHT22;34799;51.440;-2.534;2023-03-31T03:43:42;10.60;99.90
48988;DHT22;34799;51.440;-2.534;2023-03-31T03:46:09;10.60;99.90
48988;DHT22;34799;51.440;-2.534;2023-03-31T03:48:36;10.60;99.90
48988;DHT22;34799;51.440;-2.534;2023-03-31T03:51:03;10.60;99.90
48988;DHT22;34799;51.440;-2.534;2023-03-31T03:53:31;10.60;99.90
48988;DHT22;34799;51.440;-2.534;2023-03-31T03:56:00;10.60;99.90
48988;DHT22;34799;51.440;-2.534;2023-03-31T03:58:28;10.60;99.90
48988;DHT22;34799;51.440;-2.534;2023-03-31T04:00:55;10.60;99.90
48988;DHT22;34799;51.440;-2.534;2023-03-31T04:03:25;10.70;99.90
48988;DHT22;34799;51.440;-2.534;2023-03-31T04:05:53;10.60;99.90
48988;DHT22;34799;51.440;-2.534;2023-03-31T04:08:20;10.60;99.90
48988;DHT22;34799;51.440;-2.534;2023-03-31T04:10:48;10.60;99.90
48988;DHT22;34799;51.440;-2.534;2023-03-31T04:13:16;10.60;99.90
48988;DHT22;34799;51.440;-2.534;2023-03-31T04:15:44;10.60;99.90
48988;DHT22;34799;51.440;-2.534;2023-03-31T04:18:12;10.60;99.90
48988;DHT22;34799;51.440;-2.534;2023-03-31T04:20:52;10.60;99.90
48988;DHT22;34799;51.440;-2.534;2023-03-31T04:23:34;10.60;99.90
48988;DHT22;34799;51.440;-2.534;2023-03-31T04:26:04;10.60;99.90
48988;DHT22;34799;51.440;-2.534;2023-03-31T04:28:35;10.60;99.90
48988;DHT22;34799;51.440;-2.534;2023-03-31T04:31:03;10.70;99.90
48988;DHT22;34799;51.440;-2.534;2023-03-31T04:33:32;10.70;99.90
48988;DHT22;34799;51.440;-2.534;2023-03-31T04:36:05;10.70;99.90
48988;DHT22;34799;51.440;-2.534;2023-03-31T04:38:45;10.70;99.90
48988;DHT22;34799;51.440;-2.534;2023-03-31T04:41:13;10.70;99.90
48988;DHT22;34799;51.440;-2.534;2023-03-31T04:43:40;10.70;99.90
48988;DHT22;34799;51.440;-2.534;2023-03-31T04:46:08;10.80;99.90
48988;DHT22;34799;51.440;-2.534;2023-03-31T04:48:35;10.70;99.90
48988;DHT22;34799;51.440;-2.534;2023-03-31T04:51:04;10.70;99.90
48988;DHT22;34799;51.440;-2.534;2023-03-31T04:53:32;10.70;99.90
48988;DHT22;34799;51.440;-2.534;2023-03-31T04:55:59;10.80;99.90
48988;DHT22;34799;51.440;-2.534;2023-03-31T04:58:26;10.80;99.90
48988;DHT22;34799;51.440;-2.534;2023-03-31T05:00:53;10.70;99.90
48988;DHT22;34799;51.440;-2.534;2023-03-31T05:03:20;10.70;99.90
48988;DHT22;34799;51.440;-2.534;2023-03-31T05:05:49;10.70;99.90
48988;DHT22;34799;51.440;-2.534;2023-03-31T05:08:16;10.70;99.90
48988;DHT22;34799;51.440;-2.534;2023-03-31T05:10:43;10.70;99.90
48988;DHT22;34799;51.440;-2.534;2023-03-31T05:13:10;10.70;99.90
48988;DHT22;34799;51.440;-2.534;2023-03-31T05:15:38;10.80;99.90
48988;DHT22;34799;51.440;-2.534;2023-03-31T05:18:06;11.20;99.90
48988;DHT22;34799;51.440;-2.534;2023-03-31T05:20:34;10.70;99.90
48988;DHT22;34799;51.440;-2.534;2023-03-31T05:23:01;10.70;99.90
48988;DHT22;34799;51.440;-2.534;2023-03-31T05:25:29;10.90;99.90
48988;DHT22;34799;51.440;-2.534;2023-03-31T05:28:00;10.80;99.90
48988;DHT22;34799;51.440;-2.534;2023-03-31T05:30:28;10.70;99.90
48988;DHT22;34799;51.440;-2.534;2023-03-31T05:32:55;10.80;99.90
48988;DHT22;34799;51.440;-2.534;2023-03-31T05:35:23;10.80;99.90
48988;DHT22;34799;51.440;-2.534;2023-03-31T05:37:50;10.90;99.90
48988;DHT22;34799;51.440;-2.534;2023-03-31T05:40:17;10.70;99.90
48988;DHT22;34799;51.440;-2.534;2023-03-31T05:42:46;10.70;99.90
48988;DHT22;34799;51.440;-2.534;2023-03-31T05:45:13;10.70;99.90
48988;DHT22;34799;51.440;-2.534;2023-03-31T05:47:40;10.70;99.90
48988;DHT22;34799;51.440;-2.534;2023-03-31T05:50:08;10.70;99.90
48988;DHT22;34799;51.440;-2.534;2023-03-31T05:52:35;10.70;99.90
48988;DHT22;34799;51.440;-2.534;2023-03-31T05:55:03;10.70;99.90
48988;DHT22;34799;51.440;-2.534;2023-03-31T05:57:32;10.70;99.90
48988;DHT22;34799;51.440;-2.534;2023-03-31T05:59:59;10.70;99.90
48988;DHT22;34799;51.440;-2.534;2023-03-31T06:02:26;10.70;99.90
48988;DHT22;34799;51.440;-2.534;2023-03-31T06:04:53;10.70;99.90
48988;DHT22;34799;51.440;-2.534;2023-03-31T06:07:22;10.80;99.90
48988;DHT22;34799;51.440;-2.534;2023-03-31T06:09:51;10.80;99.90
48988;DHT22;34799;51.440;-2.534;2023-03-31T06:12:18;10.80;99.90
48988;DHT22;34799;51.440;-2.534;2023-03-31T06:14:46;10.90;99.90
48988;DHT22;34799;51.440;-2.534;2023-03-31T06:17:13;10.80;99.90
48988;DHT22;34799;51.440;-2.534;2023-03-31T06:19:40;10.80;99.90
48988;DHT22;34799;51.440;-2.534;2023-03-31T06:22:07;10.80;99.90
48988;DHT22;34799;51.440;-2.534;2023-03-31T06:24:34;10.70;99.90
48988;DHT22;34799;51.440;-2.534;2023-03-31T06:27:02;10.70;99.90
48988;DHT22;34799;51.440;-2.534;2023-03-31T06:29:29;10.70;99.90
48988;DHT22;34799;51.440;-2.534;2023-03-31T06:31:56;10.70;99.90
48988;DHT22;34799;51.440;-2.534;2023-03-31T06:34:24;10.70;99.90
48988;DHT22;34799;51.440;-2.534;2023-03-31T06:36:51;10.60;99.90
48988;DHT22;34799;51.440;-2.534;2023-03-31T06:39:19;10.70;99.90
48988;DHT22;34799;51.440;-2.534;2023-03-31T06:41:47;10.60;99.90
48988;DHT22;34799;51.440;-2.534;2023-03-31T06:44:23;10.60;99.90
48988;DHT22;34799;51.440;-2.534;2023-03-31T06:46:51;10.60;99.90
48988;DHT22;34799;51.440;-2.534;2023-03-31T06:49:18;10.60;99.90
48988;DHT22;34799;51.440;-2.534;2023-03-31T06:51:45;10.60;99.90
48988;DHT22;34799;51.440;-2.534;2023-03-31T06:54:12;10.50;99.90
48988;DHT22;34799;51.440;-2.534;2023-03-31T06:56:39;10.50;99.90
48988;DHT22;34799;51.440;-2.534;2023-03-31T06:59:08;10.50;99.90
48988;DHT22;34799;51.440;-2.534;2023-03-31T07:01:35;10.40;99.90
48988;DHT22;34799;51.440;-2.534;2023-03-31T07:04:04;10.40;99.90
48988;DHT22;34799;51.440;-2.534;2023-03-31T07:06:31;10.40;99.90
48988;DHT22;34799;51.440;-2.534;2023-03-31T07:08:58;10.40;99.90
48988;DHT22;34799;51.440;-2.534;2023-03-31T07:11:27;10.40;99.90
48988;DHT22;34799;51.440;-2.534;2023-03-31T07:13:54;10.30;99.90
48988;DHT22;34799;51.440;-2.534;2023-03-31T07:16:21;10.30;99.90
48988;DHT22;34799;51.440;-2.534;2023-03-31T07:18:49;10.30;99.90
48988;DHT22;34799;51.440;-2.534;2023-03-31T07:21:20;10.30;99.90
48988;DHT22;34799;51.440;-2.534;2023-03-31T07:23:47;10.30;99.90
48988;DHT22;34799;51.440;-2.534;2023-03-31T07:26:14;10.30;99.90
48988;DHT22;34799;51.440;-2.534;2023-03-31T07:28:42;10.30;99.90
48988;DHT22;34799;51.440;-2.534;2023-03-31T07:31:13;10.30;99.90
48988;DHT22;34799;51.440;-2.534;2023-03-31T07:33:40;10.30;99.90
48988;DHT22;34799;51.440;-2.534;2023-03-31T07:36:08;10.30;99.90
48988;DHT22;34799;51.440;-2.534;2023-03-31T07:38:39;10.30;99.90
48988;DHT22;34799;51.440;-2.534;2023-03-31T07:41:16;10.30;99.90
48988;DHT22;34799;51.440;-2.534;2023-03-31T07:43:43;10.30;99.90
48988;DHT22;34799;51.440;-2.534;2023-03-31T07:46:23;10.40;99.90
48988;DHT22;34799;51.440;-2.534;2023-03-31T07:48:53;10.40;99.90
48988;DHT22;34799;51.440;-2.534;2023-03-31T07:51:23;10.40;99.90
48988;DHT22;34799;51.440;-2.534;2023-03-31T07:53:51;10.50;99.90
48988;DHT22;34799;51.440;-2.534;2023-03-31T07:56:20;10.30;99.90
48988;DHT22;34799;51.440;-2.534;2023-03-31T07:58:49;10.40;99.90
48988;DHT22;34799;51.440;-2.534;2023-03-31T08:01:19;10.30;99.90
48988;DHT22;34799;51.440;-2.534;2023-03-31T08:03:47;10.30;99.90
48988;DHT22;34799;51.440;-2.534;2023-03-31T08:06:19;10.40;99.90
48988;DHT22;34799;51.440;-2.534;2023-03-31T08:08:50;10.30;99.90
48988;DHT22;34799;51.440;-2.534;2023-03-31T08:11:18;10.30;99.90
48988;DHT22;34799;51.440;-2.534;2023-03-31T08:13:49;10.40;99.90
48988;DHT22;34799;51.440;-2.534;2023-03-31T08:16:16;10.40;99.90
48988;DHT22;34799;51.440;-2.534;2023-03-31T08:18:43;10.40;99.90
48988;DHT22;34799;51.440;-2.534;2023-03-31T08:21:11;10.30;99.90
48988;DHT22;34799;51.440;-2.534;2023-03-31T08:23:38;10.30;99.90
48988;DHT22;34799;51.440;-2.534;2023-03-31T08:26:17;10.30;99.90
48988;DHT22;34799;51.440;-2.534;2023-03-31T08:28:45;10.60;99.90
48988;DHT22;34799;51.440;-2.534;2023-03-31T08:31:14;10.30;99.90
48988;DHT22;34799;51.440;-2.534;2023-03-31T08:33:42;10.30;99.90
48988;DHT22;34799;51.440;-2.534;2023-03-31T08:36:11;10.30;99.90
48988;DHT22;34799;51.440;-2.534;2023-03-31T08:38:40;10.40;99.90
48988;DHT22;34799;51.440;-2.534;2023-03-31T08:41:30;10.30;99.90
48988;DHT22;34799;51.440;-2.534;2023-03-31T08:44:02;10.30;99.90
48988;DHT22;34799;51.440;-2.534;2023-03-31T08:46:33;10.30;99.90
48988;DHT22;34799;51.440;-2.534;2023-03-31T08:49:02;10.50;99.90
48988;DHT22;34799;51.440;-2.534;2023-03-31T08:51:40;10.40;99.90
48988;DHT22;34799;51.440;-2.534;2023-03-31T08:56:46;10.50;99.90
48988;DHT22;34799;51.440;-2.534;2023-03-31T08:59:28;10.70;99.90
48988;DHT22;34799;51.440;-2.534;2023-03-31T09:02:26;10.60;99.90
48988;DHT22;34799;51.440;-2.534;2023-03-31T09:07:57;10.90;99.90
48988;DHT22;34799;51.440;-2.534;2023-03-31T09:10:38;10.90;99.90
48988;DHT22;34799;51.440;-2.534;2023-03-31T09:13:23;11.00;99.90
48988;DHT22;34799;51.440;-2.534;2023-03-31T09:16:00;11.20;99.90
48988;DHT22;34799;51.440;-2.534;2023-03-31T09:18:32;11.20;99.90
48988;DHT22;34799;51.440;-2.534;2023-03-31T09:24:10;11.30;99.90
48988;DHT22;34799;51.440;-2.534;2023-03-31T09:26:49;11.40;99.90
48988;DHT22;34799;51.440;-2.534;2023-03-31T09:29:29;11.40;99.90
48988;DHT22;34799;51.440;-2.534;2023-03-31T09:32:19;11.40;99.90
48988;DHT22;34799;51.440;-2.534;2023-03-31T09:34:51;11.40;99.90
48988;DHT22;34799;51.440;-2.534;2023-03-31T09:37:19;11.40;99.90
48988;DHT22;34799;51.440;-2.534;2023-03-31T09:39:46;11.40;99.90
48988;DHT22;34799;51.440;-2.534;2023-03-31T09:42:13;11.40;99.90
48988;DHT22;34799;51.440;-2.534;2023-03-31T09:44:46;11.50;99.90
48988;DHT22;34799;51.440;-2.534;2023-03-31T09:47:20;11.50;99.90
48988;DHT22;34799;51.440;-2.534;2023-03-31T09:49:51;11.50;99.90
48988;DHT22;34799;51.440;-2.534;2023-03-31T09:54:53;11.60;99.90
48988;DHT22;34799;51.440;-2.534;2023-03-31T09:57:37;11.60;99.90
48988;DHT22;34799;51.440;-2.534;2023-03-31T10:00:17;11.60;99.90
48988;DHT22;34799;51.440;-2.534;2023-03-31T10:05:37;11.80;99.90
48988;DHT22;34799;51.440;-2.534;2023-03-31T10:13:28;11.70;99.90
48988;DHT22;34799;51.440;-2.534;2023-03-31T10:16:11;11.70;99.90
48988;DHT22;34799;51.440;-2.534;2023-03-31T10:18:42;11.70;99.90
48988;DHT22;34799;51.440;-2.534;2023-03-31T10:21:26;11.60;99.90
48988;DHT22;34799;51.440;-2.534;2023-03-31T10:23:53;11.60;99.90
48988;DHT22;34799;51.440;-2.534;2023-03-31T10:26:26;11.60;99.90
48988;DHT22;34799;51.440;-2.534;2023-03-31T10:28:54;11.70;99.90
48988;DHT22;34799;51.440;-2.534;2023-03-31T10:31:25;10.20;99.90
48988;DHT22;34799;51.440;-2.534;2023-03-31T10:33:54;11.70;99.90
48988;DHT22;34799;51.440;-2.534;2023-03-31T10:36:25;11.70;99.90
48988;DHT22;34799;51.440;-2.534;2023-03-31T10:38:54;11.80;99.90
48988;DHT22;34799;51.440;-2.534;2023-03-31T10:41:28;11.90;99.90
48988;DHT22;34799;51.440;-2.534;2023-03-31T10:43:58;11.80;99.90
48988;DHT22;34799;51.440;-2.534;2023-03-31T10:46:45;11.90;99.90
48988;DHT22;34799;51.440;-2.534;2023-03-31T10:49:25;12.10;99.90
48988;DHT22;34799;51.440;-2.534;2023-03-31T10:51:55;12.10;99.90
48988;DHT22;34799;51.440;-2.534;2023-03-31T10:54:24;12.10;99.90
48988;DHT22;34799;51.440;-2.534;2023-03-31T10:57:00;12.20;99.90
48988;DHT22;34799;51.440;-2.534;2023-03-31T11:00:01;12.10;99.90
48988;DHT22;34799;51.440;-2.534;2023-03-31T11:07:57;12.20;99.90
48988;DHT22;34799;51.440;-2.534;2023-03-31T11:21:53;13.50;99.90
48988;DHT22;34799;51.440;-2.534;2023-03-31T11:27:49;12.50;99.90
48988;DHT22;34799;51.440;-2.534;2023-03-31T11:30:42;12.50;99.90
48988;DHT22;34799;51.440;-2.534;2023-03-31T11:39:32;12.50;99.90
48988;DHT22;34799;51.440;-2.534;2023-03-31T11:42:18;12.70;99.90
48988;DHT22;34799;51.440;-2.534;2023-03-31T11:44:51;12.50;99.90
48988;DHT22;34799;51.440;-2.534;2023-03-31T11:47:25;12.30;99.90
48988;DHT22;34799;51.440;-2.534;2023-03-31T11:49:55;12.20;99.90
48988;DHT22;34799;51.440;-2.534;2023-03-31T11:52:34;12.00;99.90
48988;DHT22;34799;51.440;-2.534;2023-03-31T11:55:14;11.80;99.90
48988;DHT22;34799;51.440;-2.534;2023-03-31T11:58:03;11.80;99.90
48988;DHT22;34799;51.440;-2.534;2023-03-31T12:00:41;11.70;99.90
48988;DHT22;34799;51.440;-2.534;2023-03-31T12:06:05;11.50;99.90
48988;DHT22;34799;51.440;-2.534;2023-03-31T12:11:24;11.50;99.90
48988;DHT22;34799;51.440;-2.534;2023-03-31T12:14:50;11.40;99.90
48988;DHT22;34799;51.440;-2.534;2023-03-31T12:17:14;11.40;99.90
48988;DHT22;34799;51.440;-2.534;2023-03-31T12:19:51;11.40;99.90
48988;DHT22;34799;51.440;-2.534;2023-03-31T12:22:52;11.40;99.90
48988;DHT22;34799;51.440;-2.534;2023-03-31T12:25:21;11.40;99.90
48988;DHT22;34799;51.440;-2.534;2023-03-31T12:27:49;11.50;99.90
48988;DHT22;34799;51.440;-2.534;2023-03-31T12:30:30;11.60;99.90
48988;DHT22;34799;51.440;-2.534;2023-03-31T12:33:15;11.60;99.90
48988;DHT22;34799;51.440;-2.534;2023-03-31T12:36:48;11.50;99.90
48988;DHT22;34799;51.440;-2.534;2023-03-31T12:44:36;11.70;99.90
48988;DHT22;34799;51.440;-2.534;2023-03-31T12:49:46;11.60;99.90
48988;DHT22;34799;51.440;-2.534;2023-03-31T12:55:16;11.40;99.90
48988;DHT22;34799;51.440;-2.534;2023-03-31T12:57:48;11.40;99.90
48988;DHT22;34799;51.440;-2.534;2023-03-31T13:00:25;11.30;99.90
48988;DHT22;34799;51.440;-2.534;2023-03-31T13:06:02;11.20;99.90
48988;DHT22;34799;51.440;-2.534;2023-03-31T13:14:23;10.90;99.90
48988;DHT22;34799;51.440;-2.534;2023-03-31T13:16:51;10.90;99.90
48988;DHT22;34799;51.440;-2.534;2023-03-31T13:19:36;10.80;99.90
48988;DHT22;34799;51.440;-2.534;2023-03-31T13:22:36;10.80;99.90
48988;DHT22;34799;51.440;-2.534;2023-03-31T13:27:54;10.80;99.90
48988;DHT22;34799;51.440;-2.534;2023-03-31T13:35:50;11.00;99.90
48988;DHT22;34799;51.440;-2.534;2023-03-31T13:41:22;11.00;99.90
48988;DHT22;34799;51.440;-2.534;2023-03-31T13:51:57;11.10;99.90
48988;DHT22;34799;51.440;-2.534;2023-03-31T14:08:23;10.90;99.90
48988;DHT22;34799;51.440;-2.534;2023-03-31T14:10:52;10.80;99.90
48988;DHT22;34799;51.440;-2.534;2023-03-31T14:13:24;10.70;99.90
48988;DHT22;34799;51.440;-2.534;2023-03-31T14:15:57;10.60;99.90
48988;DHT22;34799;51.440;-2.534;2023-03-31T14:18:30;10.60;99.90
48988;DHT22;34799;51.440;-2.534;2023-03-31T14:24:20;10.50;99.90
48988;DHT22;34799;51.440;-2.534;2023-03-31T14:27:00;10.40;99.90
48988;DHT22;34799;51.440;-2.534;2023-03-31T14:30:04;10.40;99.90
48988;DHT22;34799;51.440;-2.534;2023-03-31T14:38:29;10.30;99.90
48988;DHT22;34799;51.440;-2.534;2023-03-31T14:40:58;10.30;99.90
48988;DHT22;34799;51.440;-2.534;2023-03-31T14:43:32;10.40;99.90
48988;DHT22;34799;51.440;-2.534;2023-03-31T14:46:00;10.30;99.90
48988;DHT22;34799;51.440;-2.534;2023-03-31T14:48:32;10.20;99.90
48988;DHT22;34799;51.440;-2.534;2023-03-31T14:51:01;10.10;99.90
48988;DHT22;34799;51.440;-2.534;2023-03-31T14:53:29;10.10;99.90
48988;DHT22;34799;51.440;-2.534;2023-03-31T14:56:08;10.10;99.90
48988;DHT22;34799;51.440;-2.534;2023-03-31T14:58:40;10.10;99.90
48988;DHT22;34799;51.440;-2.534;2023-03-31T15:01:14;10.10;99.90
48988;DHT22;34799;51.440;-2.534;2023-03-31T15:03:44;10.10;99.90
48988;DHT22;34799;51.440;-2.534;2023-03-31T15:06:13;10.20;99.90
48988;DHT22;34799;51.440;-2.534;2023-03-31T15:08:40;10.20;99.90
48988;DHT22;34799;51.440;-2.534;2023-03-31T15:11:14;10.20;99.90
48988;DHT22;34799;51.440;-2.534;2023-03-31T15:13:47;10.20;99.90
48988;DHT22;34799;51.440;-2.534;2023-03-31T15:18:59;10.30;99.90
48988;DHT22;34799;51.440;-2.534;2023-03-31T15:21:29;10.30;99.90
48988;DHT22;34799;51.440;-2.534;2023-03-31T15:23:58;10.30;99.90
48988;DHT22;34799;51.440;-2.534;2023-03-31T15:26:35;10.40;99.90
48988;DHT22;34799;51.440;-2.534;2023-03-31T15:29:11;10.30;99.90
48988;DHT22;34799;51.440;-2.534;2023-03-31T15:31:42;10.40;99.90
48988;DHT22;34799;51.440;-2.534;2023-03-31T15:34:30;10.30;99.90
48988;DHT22;34799;51.440;-2.534;2023-03-31T15:36:59;10.30;99.90
48988;DHT22;34799;51.440;-2.534;2023-03-31T15:39:31;10.30;99.90
48988;DHT22;34799;51.440;-2.534;2023-03-31T15:42:01;10.40;99.90
48988;DHT22;34799;51.440;-2.534;2023-03-31T15:46:59;10.40;99.90
48988;DHT22;34799;51.440;-2.534;2023-03-31T15:49:27;10.40;99.90
48988;DHT22;34799;51.440;-2.534;2023-03-31T15:51:56;10.40;99.90
48988;DHT22;34799;51.440;-2.534;2023-03-31T15:54:38;10.30;99.90
48988;DHT22;34799;51.440;-2.534;2023-03-31T15:57:08;10.40;99.90
48988;DHT22;34799;51.440;-2.534;2023-03-31T15:59:50;10.50;99.90
48988;DHT22;34799;51.440;-2.534;2023-03-31T16:02:22;10.50;99.90
48988;DHT22;34799;51.440;-2.534;2023-03-31T16:04:56;10.50;99.90
48988;DHT22;34799;51.440;-2.534;2023-03-31T16:07:27;10.60;99.90
48988;DHT22;34799;51.440;-2.534;2023-03-31T16:12:33;10.60;99.90
48988;DHT22;34799;51.440;-2.534;2023-03-31T16:15:10;10.50;99.90
48988;DHT22;34799;51.440;-2.534;2023-03-31T16:20:23;10.50;99.90
48988;DHT22;34799;51.440;-2.534;2023-03-31T16:22:54;10.50;99.90
48988;DHT22;34799;51.440;-2.534;2023-03-31T16:25:27;10.50;99.90
48988;DHT22;34799;51.440;-2.534;2023-03-31T16:27:58;10.50;99.90
48988;DHT22;34799;51.440;-2.534;2023-03-31T16:30:38;10.40;99.90
48988;DHT22;34799;51.440;-2.534;2023-03-31T16:33:08;10.50;99.90
48988;DHT22;34799;51.440;-2.534;2023-03-31T16:35:47;10.40;99.90
48988;DHT22;34799;51.440;-2.534;2023-03-31T16:38:17;10.40;99.90
48988;DHT22;34799;51.440;-2.534;2023-03-31T16:40:51;10.30;99.90
48988;DHT22;34799;51.440;-2.534;2023-03-31T16:43:25;10.30;99.90
48988;DHT22;34799;51.440;-2.534;2023-03-31T16:45:59;10.30;99.90
48988;DHT22;34799;51.440;-2.534;2023-03-31T16:48:28;10.30;99.90
48988;DHT22;34799;51.440;-2.534;2023-03-31T16:50:57;10.40;99.90
48988;DHT22;34799;51.440;-2.534;2023-03-31T16:53:29;10.50;99.90
48988;DHT22;34799;51.440;-2.534;2023-03-31T16:55:58;10.40;99.90
48988;DHT22;34799;51.440;-2.534;2023-03-31T16:58:26;10.30;99.90
48988;DHT22;34799;51.440;-2.534;2023-03-31T17:00:58;10.20;99.90
48988;DHT22;34799;51.440;-2.534;2023-03-31T17:03:26;10.20;99.90
48988;DHT22;34799;51.440;-2.534;2023-03-31T17:05:55;10.10;99.90
48988;DHT22;34799;51.440;-2.534;2023-03-31T17:08:25;10.20;99.90
48988;DHT22;34799;51.440;-2.534;2023-03-31T17:11:02;10.10;99.90
48988;DHT22;34799;51.440;-2.534;2023-03-31T17:13:30;10.10;99.90
48988;DHT22;34799;51.440;-2.534;2023-03-31T17:15:58;10.10;99.90
48988;DHT22;34799;51.440;-2.534;2023-03-31T17:18:34;10.10;99.90
48988;DHT22;34799;51.440;-2.534;2023-03-31T17:21:08;10.10;99.90
48988;DHT22;34799;51.440;-2.534;2023-03-31T17:23:36;10.10;99.90
48988;DHT22;34799;51.440;-2.534;2023-03-31T17:26:05;10.20;99.90
48988;DHT22;34799;51.440;-2.534;2023-03-31T17:28:35;10.00;99.90
48988;DHT22;34799;51.440;-2.534;2023-03-31T17:31:10;10.00;99.90
48988;DHT22;34799;51.440;-2.534;2023-03-31T17:33:37;10.10;99.90
48988;DHT22;34799;51.440;-2.534;2023-03-31T17:36:04;10.00;99.90
48988;DHT22;34799;51.440;-2.534;2023-03-31T17:38:32;10.00;99.90
48988;DHT22;34799;51.440;-2.534;2023-03-31T17:41:04;10.00;99.90
48988;DHT22;34799;51.440;-2.534;2023-03-31T17:43:34;10.00;99.90
48988;DHT22;34799;51.440;-2.534;2023-03-31T17:46:06;10.10;99.90
48988;DHT22;34799;51.440;-2.534;2023-03-31T17:48:35;10.00;99.90
48988;DHT22;34799;51.440;-2.534;2023-03-31T17:51:08;10.00;99.90
48988;DHT22;34799;51.440;-2.534;2023-03-31T17:53:38;10.00;99.90
48988;DHT22;34799;51.440;-2.534;2023-03-31T17:56:05;10.00;99.90
48988;DHT22;34799;51.440;-2.534;2023-03-31T17:58:32;10.00;99.90
48988;DHT22;34799;51.440;-2.534;2023-03-31T18:01:01;10.00;99.90
48988;DHT22;34799;51.440;-2.534;2023-03-31T18:03:30;9.90;99.90
48988;DHT22;34799;51.440;-2.534;2023-03-31T18:06:09;10.00;99.90
48988;DHT22;34799;51.440;-2.534;2023-03-31T18:08:38;10.10;99.90
48988;DHT22;34799;51.440;-2.534;2023-03-31T18:11:07;10.00;99.90
48988;DHT22;34799;51.440;-2.534;2023-03-31T18:13:35;10.00;99.90
48988;DHT22;34799;51.440;-2.534;2023-03-31T18:16:03;9.90;99.90
48988;DHT22;34799;51.440;-2.534;2023-03-31T18:18:33;9.90;99.90
48988;DHT22;34799;51.440;-2.534;2023-03-31T18:21:05;9.90;99.90
48988;DHT22;34799;51.440;-2.534;2023-03-31T18:23:34;10.00;99.90
48988;DHT22;34799;51.440;-2.534;2023-03-31T18:26:05;9.90;99.90
48988;DHT22;34799;51.440;-2.534;2023-03-31T18:28:33;9.90;99.90
48988;DHT22;34799;51.440;-2.534;2023-03-31T18:31:06;9.90;99.90
48988;DHT22;34799;51.440;-2.534;2023-03-31T18:33:33;9.90;99.90